sensor_id;sensor_type;location;lat;lon;timestamp;P1;durP1;ratioP1;P2;durP2;ratioP2
52043;SDS011;38053;53.100;6.078;2022-08-11T00:02:59;7.22;;;4.65;;
52043;SDS011;38053;53.100;6.078;2022-08-11T00:05:44;6.90;;;4.38;;
52043;SDS011;38053;53.100;6.078;2022-08-11T00:14:23;6.97;;;4.68;;
52043;SDS011;38053;53.100;6.078;2022-08-11T00:17:17;8.35;;;4.40;;
52043;SDS011;38053;53.100;6.078;2022-08-11T00:20:03;9.60;;;4.75;;
52043;SDS011;38053;53.100;6.078;2022-08-11T00:23:07;7.60;;;4.53;;
52043;SDS011;38053;53.100;6.078;2022-08-11T00:25:40;8.43;;;4.30;;
52043;SDS011;38053;53.100;6.078;2022-08-11T00:28:26;6.47;;;4.35;;
52043;SDS011;38053;53.100;6.078;2022-08-11T00:31:01;8.00;;;4.35;;
52043;SDS011;38053;53.100;6.078;2022-08-11T00:39:33;9.57;;;4.78;;
52043;SDS011;38053;53.100;6.078;2022-08-11T00:48:19;6.25;;;3.63;;
52043;SDS011;38053;53.100;6.078;2022-08-11T01:05:38;6.87;;;4.20;;
52043;SDS011;38053;53.100;6.078;2022-08-11T01:20:10;8.80;;;5.40;;
52043;SDS011;38053;53.100;6.078;2022-08-11T01:23:11;9.43;;;5.95;;
52043;SDS011;38053;53.100;6.078;2022-08-11T01:44:44;7.10;;;5.57;;
52043;SDS011;38053;53.100;6.078;2022-08-11T02:11:23;9.77;;;5.93;;
52043;SDS011;38053;53.100;6.078;2022-08-11T02:17:47;10.75;;;6.28;;
52043;SDS011;38053;53.100;6.078;2022-08-11T02:24:27;15.95;;;6.82;;
52043;SDS011;38053;53.100;6.078;2022-08-11T02:27:26;12.13;;;8.18;;
52043;SDS011;38053;53.100;6.078;2022-08-11T02:30:24;9.93;;;6.88;;
52043;SDS011;38053;53.100;6.078;2022-08-11T02:33:15;9.13;;;6.65;;
52043;SDS011;38053;53.100;6.078;2022-08-11T02:41:49;9.32;;;6.82;;
52043;SDS011;38053;53.100;6.078;2022-08-11T02:45:11;9.77;;;7.20;;
52043;SDS011;38053;53.100;6.078;2022-08-11T02:47:54;10.70;;;7.55;;
52043;SDS011;38053;53.100;6.078;2022-08-11T02:56:58;11.82;;;6.97;;
52043;SDS011;38053;53.100;6.078;2022-08-11T03:00:20;11.35;;;7.05;;
52043;SDS011;38053;53.100;6.078;2022-08-11T03:09:57;9.32;;;6.50;;
52043;SDS011;38053;53.100;6.078;2022-08-11T03:19:09;11.50;;;7.28;;
52043;SDS011;38053;53.100;6.078;2022-08-11T03:25:01;11.38;;;7.80;;
52043;SDS011;38053;53.100;6.078;2022-08-11T03:27:46;11.75;;;7.32;;
52043;SDS011;38053;53.100;6.078;2022-08-11T03:31:00;8.95;;;6.13;;
52043;SDS011;38053;53.100;6.078;2022-08-11T03:42:48;10.30;;;7.05;;
52043;SDS011;38053;53.100;6.078;2022-08-11T03:48:48;15.90;;;8.20;;
52043;SDS011;38053;53.100;6.078;2022-08-11T04:02:18;12.25;;;7.50;;
52043;SDS011;38053;53.100;6.078;2022-08-11T04:05:31;13.32;;;7.97;;
52043;SDS011;38053;53.100;6.078;2022-08-11T04:20:50;13.57;;;8.13;;
52043;SDS011;38053;53.100;6.078;2022-08-11T04:39:13;13.43;;;8.63;;
52043;SDS011;38053;53.100;6.078;2022-08-11T05:16:59;12.90;;;9.43;;
52043;SDS011;38053;53.100;6.078;2022-08-11T05:19:57;15.82;;;8.85;;
52043;SDS011;38053;53.100;6.078;2022-08-11T05:22:45;15.45;;;9.27;;
52043;SDS011;38053;53.100;6.078;2022-08-11T05:25:36;14.15;;;10.15;;
52043;SDS011;38053;53.100;6.078;2022-08-11T05:28:31;20.23;;;10.02;;
52043;SDS011;38053;53.100;6.078;2022-08-11T05:33:51;14.93;;;9.98;;
52043;SDS011;38053;53.100;6.078;2022-08-11T05:37:08;16.75;;;10.95;;
52043;SDS011;38053;53.100;6.078;2022-08-11T05:43:07;18.15;;;9.52;;
52043;SDS011;38053;53.100;6.078;2022-08-11T05:46:02;20.20;;;10.00;;
52043;SDS011;38053;53.100;6.078;2022-08-11T05:48:56;14.45;;;9.10;;
52043;SDS011;38053;53.100;6.078;2022-08-11T05:51:53;13.95;;;9.27;;
52043;SDS011;38053;53.100;6.078;2022-08-11T05:54:44;12.55;;;9.27;;
52043;SDS011;38053;53.100;6.078;2022-08-11T06:00:13;14.52;;;8.55;;
52043;SDS011;38053;53.100;6.078;2022-08-11T06:02:43;15.68;;;9.13;;
52043;SDS011;38053;53.100;6.078;2022-08-11T06:05:40;13.45;;;7.80;;
52043;SDS011;38053;53.100;6.078;2022-08-11T06:08:12;11.73;;;8.13;;
52043;SDS011;38053;53.100;6.078;2022-08-11T06:10:46;12.60;;;8.98;;
52043;SDS011;38053;53.100;6.078;2022-08-11T06:13:51;11.18;;;8.73;;
52043;SDS011;38053;53.100;6.078;2022-08-11T06:16:24;12.10;;;7.93;;
52043;SDS011;38053;53.100;6.078;2022-08-11T06:19:11;11.50;;;7.60;;
52043;SDS011;38053;53.100;6.078;2022-08-11T06:21:50;13.88;;;7.40;;
52043;SDS011;38053;53.100;6.078;2022-08-11T06:24:27;10.98;;;8.75;;
52043;SDS011;38053;53.100;6.078;2022-08-11T06:27:20;10.32;;;7.93;;
52043;SDS011;38053;53.100;6.078;2022-08-11T06:29:50;11.02;;;8.15;;
52043;SDS011;38053;53.100;6.078;2022-08-11T06:32:26;10.65;;;7.80;;
52043;SDS011;38053;53.100;6.078;2022-08-11T06:40:57;8.80;;;6.68;;
52043;SDS011;38053;53.100;6.078;2022-08-11T06:44:19;10.55;;;6.28;;
52043;SDS011;38053;53.100;6.078;2022-08-11T06:50:05;9.85;;;6.63;;
52043;SDS011;38053;53.100;6.078;2022-08-11T06:52:53;13.35;;;7.38;;
52043;SDS011;38053;53.100;6.078;2022-08-11T06:55:23;11.10;;;6.35;;
52043;SDS011;38053;53.100;6.078;2022-08-11T06:58:24;13.52;;;6.70;;
52043;SDS011;38053;53.100;6.078;2022-08-11T07:01:49;10.73;;;6.75;;
52043;SDS011;38053;53.100;6.078;2022-08-11T07:04:30;10.15;;;6.63;;
52043;SDS011;38053;53.100;6.078;2022-08-11T07:14:00;10.82;;;5.35;;
52043;SDS011;38053;53.100;6.078;2022-08-11T07:16:49;11.35;;;5.90;;
52043;SDS011;38053;53.100;6.078;2022-08-11T07:22:23;7.90;;;4.55;;
52043;SDS011;38053;53.100;6.078;2022-08-11T07:25:41;9.40;;;6.03;;
52043;SDS011;38053;53.100;6.078;2022-08-11T07:31:41;9.25;;;5.25;;
52043;SDS011;38053;53.100;6.078;2022-08-11T07:34:39;7.15;;;4.82;;
52043;SDS011;38053;53.100;6.078;2022-08-11T07:37:25;8.90;;;5.75;;
52043;SDS011;38053;53.100;6.078;2022-08-11T07:40:06;9.55;;;4.75;;
52043;SDS011;38053;53.100;6.078;2022-08-11T07:42:39;7.22;;;4.70;;
52043;SDS011;38053;53.100;6.078;2022-08-11T07:45:16;9.90;;;6.28;;
52043;SDS011;38053;53.100;6.078;2022-08-11T07:48:28;13.43;;;5.65;;
52043;SDS011;38053;53.100;6.078;2022-08-11T07:51:30;8.27;;;4.38;;
52043;SDS011;38053;53.100;6.078;2022-08-11T07:54:32;6.82;;;4.28;;
52043;SDS011;38053;53.100;6.078;2022-08-11T07:57:10;6.22;;;3.53;;
52043;SDS011;38053;53.100;6.078;2022-08-11T08:03:48;8.40;;;3.53;;
52043;SDS011;38053;53.100;6.078;2022-08-11T08:06:36;7.80;;;3.53;;
52043;SDS011;38053;53.100;6.078;2022-08-11T08:09:32;7.35;;;3.00;;
52043;SDS011;38053;53.100;6.078;2022-08-11T08:12:30;10.35;;;2.95;;
52043;SDS011;38053;53.100;6.078;2022-08-11T08:15:15;12.90;;;3.25;;
52043;SDS011;38053;53.100;6.078;2022-08-11T08:20:47;4.38;;;2.50;;
52043;SDS011;38053;53.100;6.078;2022-08-11T08:23:22;7.63;;;2.10;;
52043;SDS011;38053;53.100;6.078;2022-08-11T08:26:03;3.05;;;1.83;;
52043;SDS011;38053;53.100;6.078;2022-08-11T08:29:02;9.02;;;1.98;;
52043;SDS011;38053;53.100;6.078;2022-08-11T08:31:56;4.22;;;2.20;;
52043;SDS011;38053;53.100;6.078;2022-08-11T08:34:31;6.43;;;1.42;;
52043;SDS011;38053;53.100;6.078;2022-08-11T08:37:04;3.85;;;1.50;;
52043;SDS011;38053;53.100;6.078;2022-08-11T08:39:30;4.82;;;1.48;;
52043;SDS011;38053;53.100;6.078;2022-08-11T08:42:48;7.28;;;1.60;;
52043;SDS011;38053;53.100;6.078;2022-08-11T08:45:00;4.82;;;1.63;;
52043;SDS011;38053;53.100;6.078;2022-08-11T08:47:40;2.72;;;1.38;;
52043;SDS011;38053;53.100;6.078;2022-08-11T08:50:20;2.95;;;1.65;;
52043;SDS011;38053;53.100;6.078;2022-08-11T08:53:13;3.05;;;1.30;;
52043;SDS011;38053;53.100;6.078;2022-08-11T08:55:45;4.93;;;1.38;;
52043;SDS011;38053;53.100;6.078;2022-08-11T08:58:14;4.85;;;1.40;;
52043;SDS011;38053;53.100;6.078;2022-08-11T09:01:01;7.63;;;1.50;;
52043;SDS011;38053;53.100;6.078;2022-08-11T09:03:36;4.38;;;1.50;;
52043;SDS011;38053;53.100;6.078;2022-08-11T09:06:20;3.72;;;1.40;;
52043;SDS011;38053;53.100;6.078;2022-08-11T09:08:49;5.68;;;1.88;;
52043;SDS011;38053;53.100;6.078;2022-08-11T09:11:25;3.30;;;1.17;;
52043;SDS011;38053;53.100;6.078;2022-08-11T09:44:06;5.47;;;1.65;;
52043;SDS011;38053;53.100;6.078;2022-08-11T09:46:52;3.85;;;1.65;;
52043;SDS011;38053;53.100;6.078;2022-08-11T09:49:23;2.83;;;1.33;;
52043;SDS011;38053;53.100;6.078;2022-08-11T09:51:56;3.90;;;1.85;;
52043;SDS011;38053;53.100;6.078;2022-08-11T09:54:45;4.95;;;1.50;;
52043;SDS011;38053;53.100;6.078;2022-08-11T09:57:17;5.03;;;1.55;;
52043;SDS011;38053;53.100;6.078;2022-08-11T10:00:05;3.83;;;1.40;;
52043;SDS011;38053;53.100;6.078;2022-08-11T10:02:33;6.35;;;1.40;;
52043;SDS011;38053;53.100;6.078;2022-08-11T10:05:10;5.82;;;1.55;;
52043;SDS011;38053;53.100;6.078;2022-08-11T10:07:57;1.60;;;1.10;;
52043;SDS011;38053;53.100;6.078;2022-08-11T10:10:29;2.50;;;1.42;;
52043;SDS011;38053;53.100;6.078;2022-08-11T10:13:01;2.92;;;1.33;;
52043;SDS011;38053;53.100;6.078;2022-08-11T10:15:42;5.80;;;1.23;;
52043;SDS011;38053;53.100;6.078;2022-08-11T10:18:18;5.10;;;1.45;;
52043;SDS011;38053;53.100;6.078;2022-08-11T10:23:57;2.88;;;1.45;;
52043;SDS011;38053;53.100;6.078;2022-08-11T10:26:46;4.55;;;1.27;;
52043;SDS011;38053;53.100;6.078;2022-08-11T10:29:37;6.57;;;1.48;;
52043;SDS011;38053;53.100;6.078;2022-08-11T10:32:23;2.35;;;1.30;;
52043;SDS011;38053;53.100;6.078;2022-08-11T10:35:09;3.17;;;1.52;;
52043;SDS011;38053;53.100;6.078;2022-08-11T10:37:51;2.47;;;1.00;;
52043;SDS011;38053;53.100;6.078;2022-08-11T10:44:40;3.85;;;1.33;;
52043;SDS011;38053;53.100;6.078;2022-08-11T10:51:07;2.90;;;1.30;;
52043;SDS011;38053;53.100;6.078;2022-08-11T11:05:29;2.58;;;1.58;;
52043;SDS011;38053;53.100;6.078;2022-08-11T11:08:09;3.53;;;1.50;;
52043;SDS011;38053;53.100;6.078;2022-08-11T11:10:57;3.40;;;1.40;;
52043;SDS011;38053;53.100;6.078;2022-08-11T11:13:25;4.88;;;1.70;;
52043;SDS011;38053;53.100;6.078;2022-08-11T11:16:10;6.15;;;1.20;;
52043;SDS011;38053;53.100;6.078;2022-08-11T11:19:09;6.18;;;1.52;;
52043;SDS011;38053;53.100;6.078;2022-08-11T11:21:37;3.00;;;1.40;;
52043;SDS011;38053;53.100;6.078;2022-08-11T11:35:13;4.03;;;1.38;;
52043;SDS011;38053;53.100;6.078;2022-08-11T11:37:50;2.78;;;1.27;;
52043;SDS011;38053;53.100;6.078;2022-08-11T11:40:18;2.20;;;1.20;;
52043;SDS011;38053;53.100;6.078;2022-08-11T11:42:49;2.17;;;0.90;;
52043;SDS011;38053;53.100;6.078;2022-08-11T11:45:17;4.47;;;1.42;;
52043;SDS011;38053;53.100;6.078;2022-08-11T11:47:48;3.30;;;1.60;;
52043;SDS011;38053;53.100;6.078;2022-08-11T11:50:20;3.17;;;1.17;;
52043;SDS011;38053;53.100;6.078;2022-08-11T11:52:48;2.80;;;1.35;;
52043;SDS011;38053;53.100;6.078;2022-08-11T11:55:17;5.35;;;1.40;;
52043;SDS011;38053;53.100;6.078;2022-08-11T11:57:43;2.70;;;1.08;;
52043;SDS011;38053;53.100;6.078;2022-08-11T12:00:28;2.42;;;1.15;;
52043;SDS011;38053;53.100;6.078;2022-08-11T12:03:13;3.03;;;1.30;;
52043;SDS011;38053;53.100;6.078;2022-08-11T12:05:43;3.30;;;1.10;;
52043;SDS011;38053;53.100;6.078;2022-08-11T12:08:11;4.60;;;1.30;;
52043;SDS011;38053;53.100;6.078;2022-08-11T12:13:40;2.97;;;1.27;;
52043;SDS011;38053;53.100;6.078;2022-08-11T12:16:14;3.33;;;1.38;;
52043;SDS011;38053;53.100;6.078;2022-08-11T12:21:07;2.85;;;1.15;;
52043;SDS011;38053;53.100;6.078;2022-08-11T12:23:35;4.20;;;1.50;;
52043;SDS011;38053;53.100;6.078;2022-08-11T12:26:21;3.88;;;1.20;;
52043;SDS011;38053;53.100;6.078;2022-08-11T12:29:04;9.00;;;1.17;;
52043;SDS011;38053;53.100;6.078;2022-08-11T12:31:32;2.80;;;0.90;;
52043;SDS011;38053;53.100;6.078;2022-08-11T12:34:02;1.40;;;0.88;;
52043;SDS011;38053;53.100;6.078;2022-08-11T12:37:19;3.08;;;1.35;;
52043;SDS011;38053;53.100;6.078;2022-08-11T12:39:36;3.72;;;1.52;;
52043;SDS011;38053;53.100;6.078;2022-08-11T12:42:21;3.50;;;1.70;;
52043;SDS011;38053;53.100;6.078;2022-08-11T12:45:12;2.25;;;1.02;;
52043;SDS011;38053;53.100;6.078;2022-08-11T12:50:51;4.68;;;1.17;;
52043;SDS011;38053;53.100;6.078;2022-08-11T12:53:41;3.35;;;1.00;;
52043;SDS011;38053;53.100;6.078;2022-08-11T12:56:10;2.15;;;1.08;;
52043;SDS011;38053;53.100;6.078;2022-08-11T12:58:55;1.85;;;1.20;;
52043;SDS011;38053;53.100;6.078;2022-08-11T13:01:41;1.52;;;0.88;;
52043;SDS011;38053;53.100;6.078;2022-08-11T13:04:27;7.13;;;1.83;;
52043;SDS011;38053;53.100;6.078;2022-08-11T13:07:13;1.60;;;1.00;;
52043;SDS011;38053;53.100;6.078;2022-08-11T13:09:39;8.65;;;1.33;;
52043;SDS011;38053;53.100;6.078;2022-08-11T13:12:06;3.50;;;1.33;;
52043;SDS011;38053;53.100;6.078;2022-08-11T13:14:51;6.95;;;0.98;;
52043;SDS011;38053;53.100;6.078;2022-08-11T13:17:17;3.63;;;0.93;;
52043;SDS011;38053;53.100;6.078;2022-08-11T13:19:47;2.38;;;1.17;;
52043;SDS011;38053;53.100;6.078;2022-08-11T13:22:16;3.50;;;1.20;;
52043;SDS011;38053;53.100;6.078;2022-08-11T13:24:44;3.05;;;0.93;;
52043;SDS011;38053;53.100;6.078;2022-08-11T13:27:12;2.30;;;1.08;;
52043;SDS011;38053;53.100;6.078;2022-08-11T13:29:41;3.10;;;1.40;;
52043;SDS011;38053;53.100;6.078;2022-08-11T13:32:10;1.45;;;0.80;;
52043;SDS011;38053;53.100;6.078;2022-08-11T13:34:38;3.53;;;1.10;;
52043;SDS011;38053;53.100;6.078;2022-08-11T13:37:07;1.08;;;0.80;;
52043;SDS011;38053;53.100;6.078;2022-08-11T13:39:37;2.55;;;1.02;;
52043;SDS011;38053;53.100;6.078;2022-08-11T13:42:11;7.70;;;1.85;;
52043;SDS011;38053;53.100;6.078;2022-08-11T13:44:40;5.30;;;1.17;;
52043;SDS011;38053;53.100;6.078;2022-08-11T13:47:07;2.53;;;1.15;;
52043;SDS011;38053;53.100;6.078;2022-08-11T13:49:37;5.47;;;1.20;;
52043;SDS011;38053;53.100;6.078;2022-08-11T13:52:04;2.83;;;1.30;;
52043;SDS011;38053;53.100;6.078;2022-08-11T13:54:33;1.58;;;1.00;;
52043;SDS011;38053;53.100;6.078;2022-08-11T13:57:05;2.67;;;1.00;;
52043;SDS011;38053;53.100;6.078;2022-08-11T13:59:32;4.32;;;1.10;;
52043;SDS011;38053;53.100;6.078;2022-08-11T14:02:00;3.03;;;1.55;;
52043;SDS011;38053;53.100;6.078;2022-08-11T14:07:36;2.90;;;0.98;;
52043;SDS011;38053;53.100;6.078;2022-08-11T14:10:04;3.28;;;1.60;;
52043;SDS011;38053;53.100;6.078;2022-08-11T14:12:33;3.30;;;1.25;;
52043;SDS011;38053;53.100;6.078;2022-08-11T14:15:20;3.92;;;1.25;;
52043;SDS011;38053;53.100;6.078;2022-08-11T14:17:57;4.18;;;1.00;;
52043;SDS011;38053;53.100;6.078;2022-08-11T14:20:33;2.65;;;1.13;;
52043;SDS011;38053;53.100;6.078;2022-08-11T14:23:25;1.95;;;1.20;;
52043;SDS011;38053;53.100;6.078;2022-08-11T14:25:54;3.60;;;1.60;;
52043;SDS011;38053;53.100;6.078;2022-08-11T14:28:40;4.60;;;0.93;;
52043;SDS011;38053;53.100;6.078;2022-08-11T14:31:06;12.05;;;1.13;;
52043;SDS011;38053;53.100;6.078;2022-08-11T14:33:33;1.23;;;0.93;;
52043;SDS011;38053;53.100;6.078;2022-08-11T14:36:03;5.72;;;1.13;;
52043;SDS011;38053;53.100;6.078;2022-08-11T14:38:31;5.10;;;1.17;;
52043;SDS011;38053;53.100;6.078;2022-08-11T14:40:58;2.92;;;1.38;;
52043;SDS011;38053;53.100;6.078;2022-08-11T14:43:43;4.78;;;1.25;;
52043;SDS011;38053;53.100;6.078;2022-08-11T14:46:28;3.83;;;1.13;;
52043;SDS011;38053;53.100;6.078;2022-08-11T14:49:13;1.88;;;1.05;;
52043;SDS011;38053;53.100;6.078;2022-08-11T14:51:40;4.55;;;1.17;;
52043;SDS011;38053;53.100;6.078;2022-08-11T14:54:06;11.05;;;1.55;;
52043;SDS011;38053;53.100;6.078;2022-08-11T14:56:52;2.33;;;1.30;;
52043;SDS011;38053;53.100;6.078;2022-08-11T14:59:18;3.30;;;1.60;;
52043;SDS011;38053;53.100;6.078;2022-08-11T15:01:45;3.28;;;1.67;;
52043;SDS011;38053;53.100;6.078;2022-08-11T15:04:29;4.50;;;1.00;;
52043;SDS011;38053;53.100;6.078;2022-08-11T15:06:55;6.70;;;1.77;;
52043;SDS011;38053;53.100;6.078;2022-08-11T15:09:22;3.28;;;1.35;;
52043;SDS011;38053;53.100;6.078;2022-08-11T15:11:48;3.97;;;1.35;;
52043;SDS011;38053;53.100;6.078;2022-08-11T15:14:32;3.33;;;1.70;;
52043;SDS011;38053;53.100;6.078;2022-08-11T15:17:17;4.93;;;1.30;;
52043;SDS011;38053;53.100;6.078;2022-08-11T15:19:44;4.38;;;1.45;;
52043;SDS011;38053;53.100;6.078;2022-08-11T15:22:30;3.83;;;1.30;;
52043;SDS011;38053;53.100;6.078;2022-08-11T15:25:17;2.28;;;1.25;;
52043;SDS011;38053;53.100;6.078;2022-08-11T15:27:47;3.67;;;1.20;;
52043;SDS011;38053;53.100;6.078;2022-08-11T15:30:36;2.60;;;1.50;;
52043;SDS011;38053;53.100;6.078;2022-08-11T15:33:20;3.63;;;1.35;;
52043;SDS011;38053;53.100;6.078;2022-08-11T15:36:07;2.65;;;1.10;;
52043;SDS011;38053;53.100;6.078;2022-08-11T15:38:54;2.30;;;1.00;;
52043;SDS011;38053;53.100;6.078;2022-08-11T15:41:27;3.90;;;1.48;;
52043;SDS011;38053;53.100;6.078;2022-08-11T15:44:18;4.68;;;1.48;;
52043;SDS011;38053;53.100;6.078;2022-08-11T15:47:25;2.75;;;1.00;;
52043;SDS011;38053;53.100;6.078;2022-08-11T15:49:57;3.72;;;1.38;;
52043;SDS011;38053;53.100;6.078;2022-08-11T15:52:27;3.45;;;1.65;;
52043;SDS011;38053;53.100;6.078;2022-08-11T15:54:57;7.43;;;1.52;;
52043;SDS011;38053;53.100;6.078;2022-08-11T15:57:26;6.35;;;1.83;;
52043;SDS011;38053;53.100;6.078;2022-08-11T16:00:12;5.45;;;1.38;;
52043;SDS011;38053;53.100;6.078;2022-08-11T16:02:58;3.70;;;1.45;;
52043;SDS011;38053;53.100;6.078;2022-08-11T16:05:44;3.42;;;1.13;;
52043;SDS011;38053;53.100;6.078;2022-08-11T16:08:11;4.32;;;1.30;;
52043;SDS011;38053;53.100;6.078;2022-08-11T16:10:40;2.58;;;1.25;;
52043;SDS011;38053;53.100;6.078;2022-08-11T16:13:07;4.32;;;1.27;;
52043;SDS011;38053;53.100;6.078;2022-08-11T16:15:53;3.30;;;1.77;;
52043;SDS011;38053;53.100;6.078;2022-08-11T16:18:43;4.10;;;1.25;;
52043;SDS011;38053;53.100;6.078;2022-08-11T16:21:17;8.45;;;1.75;;
52043;SDS011;38053;53.100;6.078;2022-08-11T16:23:48;4.28;;;1.40;;
52043;SDS011;38053;53.100;6.078;2022-08-11T16:26:17;2.70;;;1.17;;
52043;SDS011;38053;53.100;6.078;2022-08-11T16:28:47;2.97;;;1.33;;
52043;SDS011;38053;53.100;6.078;2022-08-11T16:33:45;3.22;;;1.58;;
52043;SDS011;38053;53.100;6.078;2022-08-11T16:36:13;2.65;;;1.00;;
52043;SDS011;38053;53.100;6.078;2022-08-11T16:38:58;1.80;;;1.23;;
52043;SDS011;38053;53.100;6.078;2022-08-11T16:41:26;3.10;;;0.95;;
52043;SDS011;38053;53.100;6.078;2022-08-11T16:44:14;6.60;;;1.30;;
52043;SDS011;38053;53.100;6.078;2022-08-11T16:47:00;6.55;;;1.10;;
52043;SDS011;38053;53.100;6.078;2022-08-11T16:51:56;2.70;;;1.13;;
52043;SDS011;38053;53.100;6.078;2022-08-11T16:54:27;3.35;;;1.25;;
52043;SDS011;38053;53.100;6.078;2022-08-11T16:56:53;2.47;;;1.23;;
52043;SDS011;38053;53.100;6.078;2022-08-11T16:59:28;4.80;;;1.17;;
52043;SDS011;38053;53.100;6.078;2022-08-11T17:04:50;3.15;;;1.10;;
52043;SDS011;38053;53.100;6.078;2022-08-11T17:07:39;2.10;;;0.95;;
52043;SDS011;38053;53.100;6.078;2022-08-11T17:10:26;2.22;;;1.10;;
52043;SDS011;38053;53.100;6.078;2022-08-11T17:13:14;3.35;;;1.55;;
52043;SDS011;38053;53.100;6.078;2022-08-11T17:15:46;5.10;;;1.48;;
52043;SDS011;38053;53.100;6.078;2022-08-11T17:18:32;2.47;;;1.20;;
52043;SDS011;38053;53.100;6.078;2022-08-11T17:21:13;6.82;;;1.50;;
52043;SDS011;38053;53.100;6.078;2022-08-11T17:23:42;6.43;;;1.60;;
52043;SDS011;38053;53.100;6.078;2022-08-11T17:29:16;4.82;;;1.33;;
52043;SDS011;38053;53.100;6.078;2022-08-11T17:31:45;8.50;;;1.20;;
52043;SDS011;38053;53.100;6.078;2022-08-11T17:34:31;3.50;;;1.20;;
52043;SDS011;38053;53.100;6.078;2022-08-11T17:37:17;4.85;;;1.65;;
52043;SDS011;38053;53.100;6.078;2022-08-11T17:39:44;1.98;;;1.20;;
52043;SDS011;38053;53.100;6.078;2022-08-11T17:42:10;3.30;;;1.33;;
52043;SDS011;38053;53.100;6.078;2022-08-11T17:44:57;4.38;;;1.42;;
52043;SDS011;38053;53.100;6.078;2022-08-11T17:47:44;2.33;;;1.20;;
52043;SDS011;38053;53.100;6.078;2022-08-11T17:50:29;5.05;;;1.70;;
52043;SDS011;38053;53.100;6.078;2022-08-11T17:52:56;5.05;;;1.42;;
52043;SDS011;38053;53.100;6.078;2022-08-11T17:55:42;5.90;;;2.15;;
52043;SDS011;38053;53.100;6.078;2022-08-11T17:58:27;4.10;;;1.30;;
52043;SDS011;38053;53.100;6.078;2022-08-11T18:01:12;5.70;;;1.73;;
52043;SDS011;38053;53.100;6.078;2022-08-11T18:03:39;2.70;;;1.23;;
52043;SDS011;38053;53.100;6.078;2022-08-11T18:06:07;4.25;;;1.38;;
52043;SDS011;38053;53.100;6.078;2022-08-11T18:08:36;2.60;;;1.30;;
52043;SDS011;38053;53.100;6.078;2022-08-11T18:11:29;2.08;;;1.20;;
52043;SDS011;38053;53.100;6.078;2022-08-11T18:14:15;4.97;;;1.30;;
52043;SDS011;38053;53.100;6.078;2022-08-11T18:17:02;2.50;;;1.27;;
52043;SDS011;38053;53.100;6.078;2022-08-11T18:19:47;4.97;;;1.23;;
52043;SDS011;38053;53.100;6.078;2022-08-11T18:22:34;4.15;;;1.30;;
52043;SDS011;38053;53.100;6.078;2022-08-11T18:25:22;3.70;;;1.35;;
52043;SDS011;38053;53.100;6.078;2022-08-11T18:28:10;5.20;;;1.40;;
52043;SDS011;38053;53.100;6.078;2022-08-11T18:30:56;6.60;;;1.35;;
52043;SDS011;38053;53.100;6.078;2022-08-11T18:33:50;1.55;;;1.17;;
52043;SDS011;38053;53.100;6.078;2022-08-11T18:36:40;5.18;;;1.33;;
52043;SDS011;38053;53.100;6.078;2022-08-11T18:39:33;2.63;;;1.42;;
52043;SDS011;38053;53.100;6.078;2022-08-11T18:42:19;6.20;;;1.42;;
52043;SDS011;38053;53.100;6.078;2022-08-11T18:45:10;5.15;;;1.50;;
52043;SDS011;38053;53.100;6.078;2022-08-11T18:48:05;4.38;;;1.40;;
52043;SDS011;38053;53.100;6.078;2022-08-11T18:50:53;2.90;;;1.20;;
52043;SDS011;38053;53.100;6.078;2022-08-11T18:53:41;7.05;;;1.48;;
52043;SDS011;38053;53.100;6.078;2022-08-11T18:56:30;2.83;;;1.37;;
52043;SDS011;38053;53.100;6.078;2022-08-11T18:59:16;4.43;;;1.30;;
52043;SDS011;38053;53.100;6.078;2022-08-11T19:02:02;2.25;;;1.08;;
52043;SDS011;38053;53.100;6.078;2022-08-11T19:04:47;3.85;;;1.50;;
52043;SDS011;38053;53.100;6.078;2022-08-11T19:07:32;6.00;;;2.13;;
52043;SDS011;38053;53.100;6.078;2022-08-11T19:10:18;4.28;;;2.20;;
52043;SDS011;38053;53.100;6.078;2022-08-11T19:13:07;3.75;;;1.52;;
52043;SDS011;38053;53.100;6.078;2022-08-11T19:15:53;4.70;;;1.75;;
52043;SDS011;38053;53.100;6.078;2022-08-11T19:18:38;5.43;;;1.80;;
52043;SDS011;38053;53.100;6.078;2022-08-11T19:21:24;5.78;;;2.42;;
52043;SDS011;38053;53.100;6.078;2022-08-11T19:24:12;4.05;;;1.83;;
52043;SDS011;38053;53.100;6.078;2022-08-11T19:26:57;2.22;;;1.25;;
52043;SDS011;38053;53.100;6.078;2022-08-11T19:29:42;22.45;;;1.77;;
52043;SDS011;38053;53.100;6.078;2022-08-11T19:32:27;7.07;;;2.97;;
52043;SDS011;38053;53.100;6.078;2022-08-11T19:35:13;4.50;;;1.58;;
52043;SDS011;38053;53.100;6.078;2022-08-11T19:37:58;3.95;;;1.55;;
52043;SDS011;38053;53.100;6.078;2022-08-11T19:40:43;4.45;;;2.58;;
52043;SDS011;38053;53.100;6.078;2022-08-11T19:43:29;7.00;;;1.63;;
52043;SDS011;38053;53.100;6.078;2022-08-11T19:46:16;4.57;;;2.03;;
52043;SDS011;38053;53.100;6.078;2022-08-11T19:49:03;4.18;;;1.92;;
52043;SDS011;38053;53.100;6.078;2022-08-11T19:51:49;5.93;;;2.15;;
52043;SDS011;38053;53.100;6.078;2022-08-11T19:54:34;4.70;;;1.60;;
52043;SDS011;38053;53.100;6.078;2022-08-11T19:57:21;3.35;;;1.63;;
52043;SDS011;38053;53.100;6.078;2022-08-11T20:00:07;4.13;;;2.05;;
52043;SDS011;38053;53.100;6.078;2022-08-11T20:03:05;5.45;;;1.75;;
52043;SDS011;38053;53.100;6.078;2022-08-11T20:05:53;4.60;;;2.88;;
52043;SDS011;38053;53.100;6.078;2022-08-11T20:08:46;3.25;;;1.63;;
52043;SDS011;38053;53.100;6.078;2022-08-11T20:11:34;4.10;;;2.40;;
52043;SDS011;38053;53.100;6.078;2022-08-11T20:14:21;4.80;;;2.05;;
52043;SDS011;38053;53.100;6.078;2022-08-11T20:17:08;3.45;;;1.73;;
52043;SDS011;38053;53.100;6.078;2022-08-11T20:19:55;5.03;;;2.08;;
52043;SDS011;38053;53.100;6.078;2022-08-11T20:22:40;5.22;;;2.30;;
52043;SDS011;38053;53.100;6.078;2022-08-11T20:25:26;8.55;;;1.70;;
52043;SDS011;38053;53.100;6.078;2022-08-11T20:28:12;5.75;;;2.10;;
52043;SDS011;38053;53.100;6.078;2022-08-11T20:30:56;14.13;;;2.67;;
52043;SDS011;38053;53.100;6.078;2022-08-11T20:33:41;6.55;;;3.25;;
52043;SDS011;38053;53.100;6.078;2022-08-11T20:36:28;6.70;;;2.60;;
52043;SDS011;38053;53.100;6.078;2022-08-11T20:39:14;11.15;;;3.45;;
52043;SDS011;38053;53.100;6.078;2022-08-11T20:42:00;9.13;;;3.58;;
52043;SDS011;38053;53.100;6.078;2022-08-11T20:44:45;4.55;;;2.33;;
52043;SDS011;38053;53.100;6.078;2022-08-11T20:47:31;5.13;;;2.58;;
52043;SDS011;38053;53.100;6.078;2022-08-11T20:50:19;4.60;;;2.20;;
52043;SDS011;38053;53.100;6.078;2022-08-11T20:53:05;8.75;;;2.55;;
52043;SDS011;38053;53.100;6.078;2022-08-11T20:55:51;4.72;;;2.55;;
52043;SDS011;38053;53.100;6.078;2022-08-11T20:58:36;8.57;;;3.00;;
52043;SDS011;38053;53.100;6.078;2022-08-11T21:01:21;4.60;;;2.47;;
52043;SDS011;38053;53.100;6.078;2022-08-11T21:04:08;3.28;;;1.80;;
52043;SDS011;38053;53.100;6.078;2022-08-11T21:06:52;7.40;;;2.42;;
52043;SDS011;38053;53.100;6.078;2022-08-11T21:09:37;6.45;;;2.67;;
52043;SDS011;38053;53.100;6.078;2022-08-11T21:12:24;7.25;;;2.05;;
52043;SDS011;38053;53.100;6.078;2022-08-11T21:15:11;7.47;;;2.65;;
52043;SDS011;38053;53.100;6.078;2022-08-11T21:17:58;4.97;;;2.42;;
52043;SDS011;38053;53.100;6.078;2022-08-11T21:20:46;4.10;;;2.05;;
52043;SDS011;38053;53.100;6.078;2022-08-11T21:23:32;6.45;;;2.50;;
52043;SDS011;38053;53.100;6.078;2022-08-11T21:26:19;6.20;;;2.53;;
52043;SDS011;38053;53.100;6.078;2022-08-11T21:29:06;6.32;;;2.20;;
52043;SDS011;38053;53.100;6.078;2022-08-11T21:31:52;6.35;;;2.47;;
52043;SDS011;38053;53.100;6.078;2022-08-11T21:34:39;4.38;;;2.50;;
52043;SDS011;38053;53.100;6.078;2022-08-11T21:37:25;9.98;;;3.38;;
52043;SDS011;38053;53.100;6.078;2022-08-11T21:40:11;4.38;;;2.40;;
52043;SDS011;38053;53.100;6.078;2022-08-11T21:42:58;6.93;;;2.33;;
52043;SDS011;38053;53.100;6.078;2022-08-11T21:45:44;7.10;;;2.95;;
52043;SDS011;38053;53.100;6.078;2022-08-11T21:48:30;4.95;;;2.65;;